Aeroporto :
LOGIN :

Iscrizione | Disclaimer

   EN    FR    IT 

 










Sommario :    VFR   VFR Marginale   IFR   IFR Intensivo   IFR Molto Intensivo
Visibilità : 
Base nubi : 
>= 8 km
>= 3000ft
5 / 8 km
1000 / 3000 ft
1500m / 5 km
500 / 1000 ft
800 / 1500m
200 / 500 ft
< 800m
< 200 ft
Simboli :   Temporali  Nebbia  Neve Forte  Precipitazioni Forti  Vento > 20 kt
SIGMETs :   Varie  Temporali  Ghiacco  Turbolenza  Onda orograficha  Ceneri Vulcaniche






- Altitudine del aeroporto : 527 ft
- Codice IATA : DBV


LDDU - Dubrovnik

ULTIMO METAR :
  • 271130Z 30013G25KT 270V330 9999 FEW035 10/M04 Q1009 BECMG 30015KT

METARs OBSOLETI :
  • 271100Z VRB15KT 9999 FEW035 10/M05 Q1009 BECMG 30015KT
  • 271030Z 01017G32KT 300V070 9999 FEW035 10/M04 Q1008 TEMPO VRB15G25KT
  • 271000Z VRB09G28KT 9999 FEW033 10/M03 Q1007 TEMPO 02015G25KT
  • 270930Z VRB14G32KT 9999 FEW033 08/M02 Q1006 TEMPO 02018KT
  • 270900Z VRB12G33KT 9999 FEW033 08/M01 Q1005 TEMPO 02018KT

TAF TAF LDDU
Valido dal 27 a 12 ore il 28 a 12 ore UTC


271125Z 2712/2812 30015KT 9999 SCT035 TX11/2712Z TN05/2721Z
PROB30
TEMPO 2712/2714 VRB10KT
BECMG 2717/2719 10009KT
TEMPO 2803/2810 14018KT RA
PROB40
TEMPO 2808/2812 4000 TSRA FEW030CB BKN035
BECMG 2810/2812 32015KT



MetMap, La meteo Aeronautica in un colpo d'occhio ! - Copyright ORBIFLY Dicembre 2007 - Disclaimer

ORBIFLY MET'MAP TEAM :

Programmazione e sviluppo : Alexandra Zaïnal
Concezione : Baudouin d'Aumeries
Aiuto per la programmazione : Marc-Olivier Méhu
Supporto tecnico e logistico : Manuel Goepfert
Aiuto per la traduzione : Arnaldo La Scala

Contatto : metmap@orbifly.com




FONTI E CREDITI :

   NOAA